Terminal Aerodrome Forecast
Issued by NWS

Home | Current Version | Previous Version | Text Only | Print | Product List | Glossary On
Versions: 1 2 3 4 5 6 7 8 9 10 11 12
878
FTUS42 KTBW 251120
TAFPGD
TAF
KPGD 251120Z 2512/2612 07007KT P6SM SCT250
     FM251400 10012KT P6SM SCT040 BKN250
     FM252000 10008KT P6SM VCSH SCT050 BKN250
     FM260100 09004KT P6SM FEW050 BKN250=

USA.gov is the U.S. government's official web portal to all federal, state and local government web resources and services.